sensor_id;sensor_type;location;lat;lon;timestamp;temperature;humidity
52725;DHT22;38621;52.830;6.914;2023-12-14T00:00:19;5.00;99.90
52725;DHT22;38621;52.830;6.914;2023-12-14T00:02:45;5.00;99.90
52725;DHT22;38621;52.830;6.914;2023-12-14T00:05:11;5.10;99.90
52725;DHT22;38621;52.830;6.914;2023-12-14T00:07:36;5.00;99.90
52725;DHT22;38621;52.830;6.914;2023-12-14T00:10:02;5.00;99.90
52725;DHT22;38621;52.830;6.914;2023-12-14T00:12:30;4.90;99.90
52725;DHT22;38621;52.830;6.914;2023-12-14T00:14:56;4.90;99.90
52725;DHT22;38621;52.830;6.914;2023-12-14T00:17:21;5.00;99.90
52725;DHT22;38621;52.830;6.914;2023-12-14T00:19:47;5.00;99.90
52725;DHT22;38621;52.830;6.914;2023-12-14T00:22:13;4.90;99.90
52725;DHT22;38621;52.830;6.914;2023-12-14T00:24:39;4.90;99.90
52725;DHT22;38621;52.830;6.914;2023-12-14T00:27:04;4.90;99.90
52725;DHT22;38621;52.830;6.914;2023-12-14T00:29:30;4.90;99.90
52725;DHT22;38621;52.830;6.914;2023-12-14T00:31:56;4.90;99.90
52725;DHT22;38621;52.830;6.914;2023-12-14T00:34:21;4.80;99.90
52725;DHT22;38621;52.830;6.914;2023-12-14T00:36:47;4.90;99.90
52725;DHT22;38621;52.830;6.914;2023-12-14T00:39:13;4.90;99.90
52725;DHT22;38621;52.830;6.914;2023-12-14T00:41:39;4.90;99.90
52725;DHT22;38621;52.830;6.914;2023-12-14T00:44:04;4.90;99.90
52725;DHT22;38621;52.830;6.914;2023-12-14T00:46:30;4.90;99.90
52725;DHT22;38621;52.830;6.914;2023-12-14T00:48:56;4.90;99.90
52725;DHT22;38621;52.830;6.914;2023-12-14T00:51:21;5.00;99.90
52725;DHT22;38621;52.830;6.914;2023-12-14T00:53:47;4.90;99.90
52725;DHT22;38621;52.830;6.914;2023-12-14T00:56:13;4.90;99.90
52725;DHT22;38621;52.830;6.914;2023-12-14T00:58:38;5.00;99.90
52725;DHT22;38621;52.830;6.914;2023-12-14T01:01:04;5.00;99.90
52725;DHT22;38621;52.830;6.914;2023-12-14T01:03:30;5.00;99.90
52725;DHT22;38621;52.830;6.914;2023-12-14T01:05:56;5.00;99.90
52725;DHT22;38621;52.830;6.914;2023-12-14T01:08:21;5.00;99.90
52725;DHT22;38621;52.830;6.914;2023-12-14T01:10:47;5.00;99.90
52725;DHT22;38621;52.830;6.914;2023-12-14T01:13:13;5.00;99.90
52725;DHT22;38621;52.830;6.914;2023-12-14T01:15:38;5.00;99.90
52725;DHT22;38621;52.830;6.914;2023-12-14T01:18:04;5.00;99.90
52725;DHT22;38621;52.830;6.914;2023-12-14T01:20:30;4.80;99.90
52725;DHT22;38621;52.830;6.914;2023-12-14T01:22:56;4.90;99.90
52725;DHT22;38621;52.830;6.914;2023-12-14T01:25:21;4.90;99.90
52725;DHT22;38621;52.830;6.914;2023-12-14T01:27:47;4.90;99.90
52725;DHT22;38621;52.830;6.914;2023-12-14T01:30:13;4.90;99.90
52725;DHT22;38621;52.830;6.914;2023-12-14T01:32:38;4.90;99.90
52725;DHT22;38621;52.830;6.914;2023-12-14T01:35:04;4.90;99.90
52725;DHT22;38621;52.830;6.914;2023-12-14T01:37:30;4.80;99.90
52725;DHT22;38621;52.830;6.914;2023-12-14T01:39:56;4.80;99.90
52725;DHT22;38621;52.830;6.914;2023-12-14T01:42:21;4.80;99.90
52725;DHT22;38621;52.830;6.914;2023-12-14T01:44:47;4.80;99.90
52725;DHT22;38621;52.830;6.914;2023-12-14T01:47:13;4.80;99.90
52725;DHT22;38621;52.830;6.914;2023-12-14T01:49:38;4.70;99.90
52725;DHT22;38621;52.830;6.914;2023-12-14T01:52:07;4.80;99.90
52725;DHT22;38621;52.830;6.914;2023-12-14T01:54:32;4.70;99.90
52725;DHT22;38621;52.830;6.914;2023-12-14T01:56:59;4.70;99.90
52725;DHT22;38621;52.830;6.914;2023-12-14T01:59:25;4.70;99.90
52725;DHT22;38621;52.830;6.914;2023-12-14T02:01:55;4.70;99.90
52725;DHT22;38621;52.830;6.914;2023-12-14T02:04:23;4.70;99.90
52725;DHT22;38621;52.830;6.914;2023-12-14T02:06:49;4.70;99.90
52725;DHT22;38621;52.830;6.914;2023-12-14T02:09:15;4.70;99.90
52725;DHT22;38621;52.830;6.914;2023-12-14T02:11:41;4.70;99.90
52725;DHT22;38621;52.830;6.914;2023-12-14T02:14:09;4.70;99.90
52725;DHT22;38621;52.830;6.914;2023-12-14T02:16:35;4.70;99.90
52725;DHT22;38621;52.830;6.914;2023-12-14T02:19:00;4.70;99.90
52725;DHT22;38621;52.830;6.914;2023-12-14T02:21:26;4.70;99.90
52725;DHT22;38621;52.830;6.914;2023-12-14T02:23:52;4.70;99.90
52725;DHT22;38621;52.830;6.914;2023-12-14T02:26:17;4.70;99.90
52725;DHT22;38621;52.830;6.914;2023-12-14T02:28:43;4.70;99.90
52725;DHT22;38621;52.830;6.914;2023-12-14T02:31:09;4.70;99.90
52725;DHT22;38621;52.830;6.914;2023-12-14T02:33:34;4.70;99.90
52725;DHT22;38621;52.830;6.914;2023-12-14T02:36:00;4.70;99.90
52725;DHT22;38621;52.830;6.914;2023-12-14T02:38:26;4.70;99.90
52725;DHT22;38621;52.830;6.914;2023-12-14T02:40:52;4.70;99.90
52725;DHT22;38621;52.830;6.914;2023-12-14T02:43:19;4.60;99.90
52725;DHT22;38621;52.830;6.914;2023-12-14T02:45:45;4.60;99.90
52725;DHT22;38621;52.830;6.914;2023-12-14T02:48:11;4.60;99.90
52725;DHT22;38621;52.830;6.914;2023-12-14T02:50:37;4.60;99.90
52725;DHT22;38621;52.830;6.914;2023-12-14T02:53:02;4.60;99.90
52725;DHT22;38621;52.830;6.914;2023-12-14T02:55:28;4.60;99.90
52725;DHT22;38621;52.830;6.914;2023-12-14T02:57:54;4.60;99.90
52725;DHT22;38621;52.830;6.914;2023-12-14T03:00:20;4.60;99.90
52725;DHT22;38621;52.830;6.914;2023-12-14T03:02:45;4.60;99.90
52725;DHT22;38621;52.830;6.914;2023-12-14T03:05:11;4.60;99.90
52725;DHT22;38621;52.830;6.914;2023-12-14T03:07:37;4.60;99.90
52725;DHT22;38621;52.830;6.914;2023-12-14T03:10:03;4.70;99.90
52725;DHT22;38621;52.830;6.914;2023-12-14T03:12:29;4.60;99.90
52725;DHT22;38621;52.830;6.914;2023-12-14T03:14:55;4.60;99.90
52725;DHT22;38621;52.830;6.914;2023-12-14T03:17:21;4.60;99.90
52725;DHT22;38621;52.830;6.914;2023-12-14T03:19:46;4.60;99.90
52725;DHT22;38621;52.830;6.914;2023-12-14T03:22:12;4.60;99.90
52725;DHT22;38621;52.830;6.914;2023-12-14T03:24:38;4.60;99.90
52725;DHT22;38621;52.830;6.914;2023-12-14T03:27:04;4.60;99.90
52725;DHT22;38621;52.830;6.914;2023-12-14T03:29:30;4.60;99.90
52725;DHT22;38621;52.830;6.914;2023-12-14T03:31:57;4.60;99.90
52725;DHT22;38621;52.830;6.914;2023-12-14T03:34:23;4.60;99.90
52725;DHT22;38621;52.830;6.914;2023-12-14T03:36:49;4.60;99.90
52725;DHT22;38621;52.830;6.914;2023-12-14T03:39:15;4.60;99.90
52725;DHT22;38621;52.830;6.914;2023-12-14T03:41:44;4.60;99.90
52725;DHT22;38621;52.830;6.914;2023-12-14T03:44:10;4.60;99.90
52725;DHT22;38621;52.830;6.914;2023-12-14T03:46:36;4.60;99.90
52725;DHT22;38621;52.830;6.914;2023-12-14T03:49:03;4.60;99.90
52725;DHT22;38621;52.830;6.914;2023-12-14T03:51:29;4.60;99.90
52725;DHT22;38621;52.830;6.914;2023-12-14T03:53:55;4.60;99.90
52725;DHT22;38621;52.830;6.914;2023-12-14T03:56:21;4.60;99.90
52725;DHT22;38621;52.830;6.914;2023-12-14T03:58:47;4.60;99.90
52725;DHT22;38621;52.830;6.914;2023-12-14T04:01:19;4.60;99.90
52725;DHT22;38621;52.830;6.914;2023-12-14T04:03:46;4.60;99.90
52725;DHT22;38621;52.830;6.914;2023-12-14T04:06:13;4.50;99.90
52725;DHT22;38621;52.830;6.914;2023-12-14T04:08:39;4.50;99.90
52725;DHT22;38621;52.830;6.914;2023-12-14T04:11:05;4.60;99.90
52725;DHT22;38621;52.830;6.914;2023-12-14T04:13:31;4.50;99.90
52725;DHT22;38621;52.830;6.914;2023-12-14T04:15:57;4.60;99.90
52725;DHT22;38621;52.830;6.914;2023-12-14T04:18:23;4.60;99.90
52725;DHT22;38621;52.830;6.914;2023-12-14T04:20:49;4.60;99.90
52725;DHT22;38621;52.830;6.914;2023-12-14T04:23:15;4.60;99.90
52725;DHT22;38621;52.830;6.914;2023-12-14T04:25:40;4.60;99.90
52725;DHT22;38621;52.830;6.914;2023-12-14T04:28:06;4.60;99.90
52725;DHT22;38621;52.830;6.914;2023-12-14T04:30:32;4.60;99.90
52725;DHT22;38621;52.830;6.914;2023-12-14T04:32:57;4.60;99.90
52725;DHT22;38621;52.830;6.914;2023-12-14T04:35:23;4.60;99.90
52725;DHT22;38621;52.830;6.914;2023-12-14T04:37:49;4.60;99.90
52725;DHT22;38621;52.830;6.914;2023-12-14T04:40:15;4.70;99.90
52725;DHT22;38621;52.830;6.914;2023-12-14T04:42:41;4.60;99.90
52725;DHT22;38621;52.830;6.914;2023-12-14T04:45:07;4.60;99.90
52725;DHT22;38621;52.830;6.914;2023-12-14T04:47:35;4.60;99.90
52725;DHT22;38621;52.830;6.914;2023-12-14T04:50:01;4.50;99.90
52725;DHT22;38621;52.830;6.914;2023-12-14T04:52:27;4.40;99.90
52725;DHT22;38621;52.830;6.914;2023-12-14T04:54:53;4.50;99.90
52725;DHT22;38621;52.830;6.914;2023-12-14T04:57:19;4.50;99.90
52725;DHT22;38621;52.830;6.914;2023-12-14T04:59:44;4.50;99.90
52725;DHT22;38621;52.830;6.914;2023-12-14T05:02:10;4.50;99.90
52725;DHT22;38621;52.830;6.914;2023-12-14T05:04:36;4.50;99.90
52725;DHT22;38621;52.830;6.914;2023-12-14T05:07:01;4.50;99.90
52725;DHT22;38621;52.830;6.914;2023-12-14T05:09:27;4.50;99.90
52725;DHT22;38621;52.830;6.914;2023-12-14T05:11:53;4.50;99.90
52725;DHT22;38621;52.830;6.914;2023-12-14T05:14:19;4.60;99.90
52725;DHT22;38621;52.830;6.914;2023-12-14T05:16:45;4.60;99.90
52725;DHT22;38621;52.830;6.914;2023-12-14T05:19:11;4.60;99.90
52725;DHT22;38621;52.830;6.914;2023-12-14T05:21:38;4.50;99.90
52725;DHT22;38621;52.830;6.914;2023-12-14T05:24:04;4.50;99.90
52725;DHT22;38621;52.830;6.914;2023-12-14T05:26:30;4.50;99.90
52725;DHT22;38621;52.830;6.914;2023-12-14T05:28:55;4.50;99.90
52725;DHT22;38621;52.830;6.914;2023-12-14T05:31:21;4.50;99.90
52725;DHT22;38621;52.830;6.914;2023-12-14T05:33:47;4.50;99.90
52725;DHT22;38621;52.830;6.914;2023-12-14T05:36:13;4.50;99.90
52725;DHT22;38621;52.830;6.914;2023-12-14T05:38:39;4.50;99.90
52725;DHT22;38621;52.830;6.914;2023-12-14T05:41:05;4.50;99.90
52725;DHT22;38621;52.830;6.914;2023-12-14T05:43:31;4.50;99.90
52725;DHT22;38621;52.830;6.914;2023-12-14T05:45:57;4.50;99.90
52725;DHT22;38621;52.830;6.914;2023-12-14T05:48:23;4.50;99.90
52725;DHT22;38621;52.830;6.914;2023-12-14T05:50:48;4.50;99.90
52725;DHT22;38621;52.830;6.914;2023-12-14T05:53:14;4.50;99.90
52725;DHT22;38621;52.830;6.914;2023-12-14T05:55:42;4.50;99.90
52725;DHT22;38621;52.830;6.914;2023-12-14T05:58:07;4.50;99.90
52725;DHT22;38621;52.830;6.914;2023-12-14T06:00:33;4.50;99.90
52725;DHT22;38621;52.830;6.914;2023-12-14T06:03:01;4.50;99.90
52725;DHT22;38621;52.830;6.914;2023-12-14T06:05:26;4.50;99.90
52725;DHT22;38621;52.830;6.914;2023-12-14T06:07:52;4.50;99.90
52725;DHT22;38621;52.830;6.914;2023-12-14T06:10:18;4.50;99.90
52725;DHT22;38621;52.830;6.914;2023-12-14T06:12:44;4.50;99.90
52725;DHT22;38621;52.830;6.914;2023-12-14T06:15:10;4.50;99.90
52725;DHT22;38621;52.830;6.914;2023-12-14T06:17:36;4.40;99.90
52725;DHT22;38621;52.830;6.914;2023-12-14T06:20:05;4.50;99.90
52725;DHT22;38621;52.830;6.914;2023-12-14T06:22:35;4.50;99.90
52725;DHT22;38621;52.830;6.914;2023-12-14T06:25:01;4.50;99.90
52725;DHT22;38621;52.830;6.914;2023-12-14T06:27:28;4.40;99.90
52725;DHT22;38621;52.830;6.914;2023-12-14T06:29:54;4.50;99.90
52725;DHT22;38621;52.830;6.914;2023-12-14T06:32:20;4.50;99.90
52725;DHT22;38621;52.830;6.914;2023-12-14T06:34:46;4.40;99.90
52725;DHT22;38621;52.830;6.914;2023-12-14T06:37:11;4.40;99.90
52725;DHT22;38621;52.830;6.914;2023-12-14T06:39:37;4.50;99.90
52725;DHT22;38621;52.830;6.914;2023-12-14T06:42:03;4.50;99.90
52725;DHT22;38621;52.830;6.914;2023-12-14T06:44:29;4.50;99.90
52725;DHT22;38621;52.830;6.914;2023-12-14T06:46:56;4.50;99.90
52725;DHT22;38621;52.830;6.914;2023-12-14T06:49:23;4.50;99.90
52725;DHT22;38621;52.830;6.914;2023-12-14T06:51:49;4.50;99.90
52725;DHT22;38621;52.830;6.914;2023-12-14T06:54:15;4.50;99.90
52725;DHT22;38621;52.830;6.914;2023-12-14T06:56:41;4.50;99.90
52725;DHT22;38621;52.830;6.914;2023-12-14T06:59:06;4.50;99.90
52725;DHT22;38621;52.830;6.914;2023-12-14T07:01:32;4.50;99.90
52725;DHT22;38621;52.830;6.914;2023-12-14T07:03:58;4.50;99.90
52725;DHT22;38621;52.830;6.914;2023-12-14T07:06:23;4.60;99.90
52725;DHT22;38621;52.830;6.914;2023-12-14T07:08:49;4.50;99.90
52725;DHT22;38621;52.830;6.914;2023-12-14T07:11:16;4.50;99.90
52725;DHT22;38621;52.830;6.914;2023-12-14T07:13:45;4.50;99.90
52725;DHT22;38621;52.830;6.914;2023-12-14T07:16:11;4.50;99.90
52725;DHT22;38621;52.830;6.914;2023-12-14T07:18:38;4.50;99.90
52725;DHT22;38621;52.830;6.914;2023-12-14T07:21:05;4.50;99.90
52725;DHT22;38621;52.830;6.914;2023-12-14T07:23:31;4.50;99.90
52725;DHT22;38621;52.830;6.914;2023-12-14T07:25:56;4.50;99.90
52725;DHT22;38621;52.830;6.914;2023-12-14T07:28:22;4.50;99.90
52725;DHT22;38621;52.830;6.914;2023-12-14T07:30:48;4.60;99.90
52725;DHT22;38621;52.830;6.914;2023-12-14T07:33:14;4.50;99.90
52725;DHT22;38621;52.830;6.914;2023-12-14T07:35:40;4.50;99.90
52725;DHT22;38621;52.830;6.914;2023-12-14T07:38:06;4.50;99.90
52725;DHT22;38621;52.830;6.914;2023-12-14T07:40:32;4.50;99.90
52725;DHT22;38621;52.830;6.914;2023-12-14T07:42:58;4.60;99.90
52725;DHT22;38621;52.830;6.914;2023-12-14T07:45:23;4.60;99.90
52725;DHT22;38621;52.830;6.914;2023-12-14T07:47:49;4.50;99.90
52725;DHT22;38621;52.830;6.914;2023-12-14T07:50:15;4.60;99.90
52725;DHT22;38621;52.830;6.914;2023-12-14T07:52:41;4.50;99.90
52725;DHT22;38621;52.830;6.914;2023-12-14T07:55:07;4.60;99.90
52725;DHT22;38621;52.830;6.914;2023-12-14T07:57:33;4.60;99.90
52725;DHT22;38621;52.830;6.914;2023-12-14T07:59:59;4.60;99.90
52725;DHT22;38621;52.830;6.914;2023-12-14T08:02:25;4.50;99.90
52725;DHT22;38621;52.830;6.914;2023-12-14T08:04:51;4.50;99.90
52725;DHT22;38621;52.830;6.914;2023-12-14T08:07:17;4.50;99.90
52725;DHT22;38621;52.830;6.914;2023-12-14T08:09:42;4.60;99.90
52725;DHT22;38621;52.830;6.914;2023-12-14T08:12:08;4.60;99.90
52725;DHT22;38621;52.830;6.914;2023-12-14T08:14:34;4.60;99.90
52725;DHT22;38621;52.830;6.914;2023-12-14T08:17:03;4.60;99.90
52725;DHT22;38621;52.830;6.914;2023-12-14T08:19:30;4.70;99.90
52725;DHT22;38621;52.830;6.914;2023-12-14T08:21:56;4.60;99.90
52725;DHT22;38621;52.830;6.914;2023-12-14T08:24:21;4.60;99.90
52725;DHT22;38621;52.830;6.914;2023-12-14T08:26:47;4.60;99.90
52725;DHT22;38621;52.830;6.914;2023-12-14T08:29:13;4.60;99.90
52725;DHT22;38621;52.830;6.914;2023-12-14T08:31:39;4.70;99.90
52725;DHT22;38621;52.830;6.914;2023-12-14T08:34:04;4.70;99.90
52725;DHT22;38621;52.830;6.914;2023-12-14T08:36:30;4.70;99.90
52725;DHT22;38621;52.830;6.914;2023-12-14T08:38:57;4.70;99.90
52725;DHT22;38621;52.830;6.914;2023-12-14T08:41:24;4.70;99.90
52725;DHT22;38621;52.830;6.914;2023-12-14T08:43:49;4.80;99.90
52725;DHT22;38621;52.830;6.914;2023-12-14T08:46:15;4.70;99.90
52725;DHT22;38621;52.830;6.914;2023-12-14T08:48:40;4.70;99.90
52725;DHT22;38621;52.830;6.914;2023-12-14T08:51:07;4.70;99.90
52725;DHT22;38621;52.830;6.914;2023-12-14T08:53:33;4.70;99.90
52725;DHT22;38621;52.830;6.914;2023-12-14T08:55:58;4.70;99.90
52725;DHT22;38621;52.830;6.914;2023-12-14T08:58:24;4.70;99.90
52725;DHT22;38621;52.830;6.914;2023-12-14T09:00:50;4.70;99.90
52725;DHT22;38621;52.830;6.914;2023-12-14T09:03:19;4.70;99.90
52725;DHT22;38621;52.830;6.914;2023-12-14T09:05:45;4.70;99.90
52725;DHT22;38621;52.830;6.914;2023-12-14T09:08:11;4.70;99.90
52725;DHT22;38621;52.830;6.914;2023-12-14T09:10:38;4.70;99.90
52725;DHT22;38621;52.830;6.914;2023-12-14T09:13:04;4.70;99.90
52725;DHT22;38621;52.830;6.914;2023-12-14T09:15:33;4.70;99.90
52725;DHT22;38621;52.830;6.914;2023-12-14T09:17:59;4.80;99.90
52725;DHT22;38621;52.830;6.914;2023-12-14T09:20:25;4.80;99.90
52725;DHT22;38621;52.830;6.914;2023-12-14T09:22:51;4.80;99.90
52725;DHT22;38621;52.830;6.914;2023-12-14T09:25:17;4.80;99.90
52725;DHT22;38621;52.830;6.914;2023-12-14T09:27:43;4.80;99.90
52725;DHT22;38621;52.830;6.914;2023-12-14T09:30:09;4.80;99.90
52725;DHT22;38621;52.830;6.914;2023-12-14T09:32:36;4.80;99.90
52725;DHT22;38621;52.830;6.914;2023-12-14T09:35:02;4.90;99.90
52725;DHT22;38621;52.830;6.914;2023-12-14T09:37:28;4.90;99.90
52725;DHT22;38621;52.830;6.914;2023-12-14T09:39:53;4.90;99.90
52725;DHT22;38621;52.830;6.914;2023-12-14T09:42:20;5.00;99.90
52725;DHT22;38621;52.830;6.914;2023-12-14T09:44:50;5.00;99.90
52725;DHT22;38621;52.830;6.914;2023-12-14T09:47:17;4.90;99.90
52725;DHT22;38621;52.830;6.914;2023-12-14T09:49:45;5.00;99.90
52725;DHT22;38621;52.830;6.914;2023-12-14T09:52:11;5.00;99.90
52725;DHT22;38621;52.830;6.914;2023-12-14T09:54:37;5.00;99.90
52725;DHT22;38621;52.830;6.914;2023-12-14T09:57:03;5.00;99.90
52725;DHT22;38621;52.830;6.914;2023-12-14T09:59:29;5.00;99.90
52725;DHT22;38621;52.830;6.914;2023-12-14T10:02:15;5.00;99.90
52725;DHT22;38621;52.830;6.914;2023-12-14T10:04:43;5.10;99.90
52725;DHT22;38621;52.830;6.914;2023-12-14T10:07:08;5.00;99.90
52725;DHT22;38621;52.830;6.914;2023-12-14T10:09:36;5.10;99.90
52725;DHT22;38621;52.830;6.914;2023-12-14T10:12:04;5.00;99.90
52725;DHT22;38621;52.830;6.914;2023-12-14T10:14:31;5.10;99.90
52725;DHT22;38621;52.830;6.914;2023-12-14T10:16:57;5.10;99.90
52725;DHT22;38621;52.830;6.914;2023-12-14T10:19:23;5.00;99.90
52725;DHT22;38621;52.830;6.914;2023-12-14T10:21:50;5.00;99.90
52725;DHT22;38621;52.830;6.914;2023-12-14T10:24:16;5.00;99.90
52725;DHT22;38621;52.830;6.914;2023-12-14T10:26:45;5.10;99.90
52725;DHT22;38621;52.830;6.914;2023-12-14T10:29:10;5.00;99.90
52725;DHT22;38621;52.830;6.914;2023-12-14T10:31:37;5.10;99.90
52725;DHT22;38621;52.830;6.914;2023-12-14T10:34:06;5.10;99.90
52725;DHT22;38621;52.830;6.914;2023-12-14T10:36:33;5.10;99.90
52725;DHT22;38621;52.830;6.914;2023-12-14T10:39:01;5.10;99.90
52725;DHT22;38621;52.830;6.914;2023-12-14T10:41:27;5.10;99.90
52725;DHT22;38621;52.830;6.914;2023-12-14T10:43:55;5.10;99.90
52725;DHT22;38621;52.830;6.914;2023-12-14T10:46:21;5.20;99.90
52725;DHT22;38621;52.830;6.914;2023-12-14T10:48:49;5.20;99.90
52725;DHT22;38621;52.830;6.914;2023-12-14T10:51:18;5.20;99.90
52725;DHT22;38621;52.830;6.914;2023-12-14T10:53:44;5.20;99.90
52725;DHT22;38621;52.830;6.914;2023-12-14T10:56:13;5.20;99.90
52725;DHT22;38621;52.830;6.914;2023-12-14T10:58:52;5.20;99.90
52725;DHT22;38621;52.830;6.914;2023-12-14T11:01:22;5.20;99.90
52725;DHT22;38621;52.830;6.914;2023-12-14T11:03:56;5.20;99.90
52725;DHT22;38621;52.830;6.914;2023-12-14T11:08:55;5.10;99.90
52725;DHT22;38621;52.830;6.914;2023-12-14T11:11:21;5.10;99.90
52725;DHT22;38621;52.830;6.914;2023-12-14T11:13:52;5.10;99.90
52725;DHT22;38621;52.830;6.914;2023-12-14T11:16:23;5.20;99.90
52725;DHT22;38621;52.830;6.914;2023-12-14T11:18:49;5.10;99.90
52725;DHT22;38621;52.830;6.914;2023-12-14T11:21:34;5.30;99.90
52725;DHT22;38621;52.830;6.914;2023-12-14T11:24:01;5.20;99.90
52725;DHT22;38621;52.830;6.914;2023-12-14T11:26:27;5.20;99.90
52725;DHT22;38621;52.830;6.914;2023-12-14T11:28:54;5.20;99.90
52725;DHT22;38621;52.830;6.914;2023-12-14T11:31:20;5.30;99.90
52725;DHT22;38621;52.830;6.914;2023-12-14T11:33:46;5.30;99.90
52725;DHT22;38621;52.830;6.914;2023-12-14T11:36:13;5.30;99.90
52725;DHT22;38621;52.830;6.914;2023-12-14T11:38:40;5.30;99.90
52725;DHT22;38621;52.830;6.914;2023-12-14T11:41:05;5.20;99.90
52725;DHT22;38621;52.830;6.914;2023-12-14T11:43:42;5.20;99.90
52725;DHT22;38621;52.830;6.914;2023-12-14T11:46:09;5.30;99.90
52725;DHT22;38621;52.830;6.914;2023-12-14T11:48:35;5.30;99.90
52725;DHT22;38621;52.830;6.914;2023-12-14T11:51:01;5.30;99.90
52725;DHT22;38621;52.830;6.914;2023-12-14T11:53:27;5.20;99.90
52725;DHT22;38621;52.830;6.914;2023-12-14T11:55:52;5.20;99.90
52725;DHT22;38621;52.830;6.914;2023-12-14T11:58:18;5.20;99.90
52725;DHT22;38621;52.830;6.914;2023-12-14T12:00:44;5.20;99.90
52725;DHT22;38621;52.830;6.914;2023-12-14T12:03:14;5.20;99.90
52725;DHT22;38621;52.830;6.914;2023-12-14T12:05:45;5.10;99.90
52725;DHT22;38621;52.830;6.914;2023-12-14T12:08:13;5.10;99.90
52725;DHT22;38621;52.830;6.914;2023-12-14T12:10:40;5.10;99.90
52725;DHT22;38621;52.830;6.914;2023-12-14T12:13:11;5.20;99.90
52725;DHT22;38621;52.830;6.914;2023-12-14T12:15:37;5.20;99.90
52725;DHT22;38621;52.830;6.914;2023-12-14T12:18:08;5.20;99.90
52725;DHT22;38621;52.830;6.914;2023-12-14T12:20:34;5.20;99.90
52725;DHT22;38621;52.830;6.914;2023-12-14T12:23:01;5.20;99.90
52725;DHT22;38621;52.830;6.914;2023-12-14T12:25:27;5.10;99.90
52725;DHT22;38621;52.830;6.914;2023-12-14T12:27:54;5.20;99.90
52725;DHT22;38621;52.830;6.914;2023-12-14T12:30:21;5.20;99.90
52725;DHT22;38621;52.830;6.914;2023-12-14T12:32:47;5.20;99.90
52725;DHT22;38621;52.830;6.914;2023-12-14T12:35:13;5.10;99.90
52725;DHT22;38621;52.830;6.914;2023-12-14T12:37:39;5.10;99.90
52725;DHT22;38621;52.830;6.914;2023-12-14T12:40:05;5.10;99.90
52725;DHT22;38621;52.830;6.914;2023-12-14T12:42:32;5.10;99.90
52725;DHT22;38621;52.830;6.914;2023-12-14T12:44:58;5.10;99.90
52725;DHT22;38621;52.830;6.914;2023-12-14T12:47:23;5.10;99.90
52725;DHT22;38621;52.830;6.914;2023-12-14T12:49:49;5.10;99.90
52725;DHT22;38621;52.830;6.914;2023-12-14T12:52:15;5.10;99.90
52725;DHT22;38621;52.830;6.914;2023-12-14T12:54:40;5.20;99.90
52725;DHT22;38621;52.830;6.914;2023-12-14T12:57:06;5.20;99.90
52725;DHT22;38621;52.830;6.914;2023-12-14T12:59:32;5.20;99.90
52725;DHT22;38621;52.830;6.914;2023-12-14T13:01:59;5.20;99.90
52725;DHT22;38621;52.830;6.914;2023-12-14T13:04:24;5.20;99.90
52725;DHT22;38621;52.830;6.914;2023-12-14T13:06:52;5.20;99.90
52725;DHT22;38621;52.830;6.914;2023-12-14T13:09:18;5.20;99.90
52725;DHT22;38621;52.830;6.914;2023-12-14T13:11:46;5.20;99.90
52725;DHT22;38621;52.830;6.914;2023-12-14T13:14:11;5.20;99.90
52725;DHT22;38621;52.830;6.914;2023-12-14T13:16:38;5.20;99.90
52725;DHT22;38621;52.830;6.914;2023-12-14T13:19:04;5.20;99.90
52725;DHT22;38621;52.830;6.914;2023-12-14T13:21:34;5.20;99.90
52725;DHT22;38621;52.830;6.914;2023-12-14T13:31:29;5.20;99.90
52725;DHT22;38621;52.830;6.914;2023-12-14T13:33:54;5.20;99.90
52725;DHT22;38621;52.830;6.914;2023-12-14T15:23:30;4.10;99.90
52725;DHT22;38621;52.830;6.914;2023-12-14T15:25:56;4.20;99.90
52725;DHT22;38621;52.830;6.914;2023-12-14T15:28:22;4.10;99.90
52725;DHT22;38621;52.830;6.914;2023-12-14T15:30:47;4.00;99.90
52725;DHT22;38621;52.830;6.914;2023-12-14T15:33:13;3.90;99.90
52725;DHT22;38621;52.830;6.914;2023-12-14T15:35:39;3.90;99.90
52725;DHT22;38621;52.830;6.914;2023-12-14T15:38:05;3.80;99.90
52725;DHT22;38621;52.830;6.914;2023-12-14T15:40:30;3.70;99.90
52725;DHT22;38621;52.830;6.914;2023-12-14T15:42:56;3.70;99.90
52725;DHT22;38621;52.830;6.914;2023-12-14T15:45:22;3.70;99.90
52725;DHT22;38621;52.830;6.914;2023-12-14T15:47:47;3.80;99.90
52725;DHT22;38621;52.830;6.914;2023-12-14T15:50:13;3.70;99.90
52725;DHT22;38621;52.830;6.914;2023-12-14T15:52:39;3.70;99.90
52725;DHT22;38621;52.830;6.914;2023-12-14T15:55:05;4.00;99.90
52725;DHT22;38621;52.830;6.914;2023-12-14T15:57:32;3.80;99.90
52725;DHT22;38621;52.830;6.914;2023-12-14T15:59:58;3.80;99.90
52725;DHT22;38621;52.830;6.914;2023-12-14T16:02:23;3.80;99.90
52725;DHT22;38621;52.830;6.914;2023-12-14T16:04:49;3.90;99.90
52725;DHT22;38621;52.830;6.914;2023-12-14T16:07:15;3.90;99.90
52725;DHT22;38621;52.830;6.914;2023-12-14T16:09:42;3.90;99.90
52725;DHT22;38621;52.830;6.914;2023-12-14T16:12:08;4.00;99.90
52725;DHT22;38621;52.830;6.914;2023-12-14T16:14:33;4.00;99.90
52725;DHT22;38621;52.830;6.914;2023-12-14T16:16:59;4.00;99.90
52725;DHT22;38621;52.830;6.914;2023-12-14T16:19:25;4.10;99.90
52725;DHT22;38621;52.830;6.914;2023-12-14T16:21:50;4.20;99.90
52725;DHT22;38621;52.830;6.914;2023-12-14T16:24:17;4.10;99.90
52725;DHT22;38621;52.830;6.914;2023-12-14T16:26:42;4.10;99.90
52725;DHT22;38621;52.830;6.914;2023-12-14T16:29:11;4.10;99.90
52725;DHT22;38621;52.830;6.914;2023-12-14T16:31:43;4.00;99.90
52725;DHT22;38621;52.830;6.914;2023-12-14T16:34:08;4.10;99.90
52725;DHT22;38621;52.830;6.914;2023-12-14T16:36:34;4.00;99.90
52725;DHT22;38621;52.830;6.914;2023-12-14T16:39:00;4.00;99.90
52725;DHT22;38621;52.830;6.914;2023-12-14T16:41:25;4.00;99.90
52725;DHT22;38621;52.830;6.914;2023-12-14T16:43:51;4.00;99.90
52725;DHT22;38621;52.830;6.914;2023-12-14T16:46:20;4.00;99.90
52725;DHT22;38621;52.830;6.914;2023-12-14T16:48:48;4.00;99.90
52725;DHT22;38621;52.830;6.914;2023-12-14T16:51:18;3.90;99.90
52725;DHT22;38621;52.830;6.914;2023-12-14T16:53:44;4.00;99.90
52725;DHT22;38621;52.830;6.914;2023-12-14T16:56:12;3.70;99.90
52725;DHT22;38621;52.830;6.914;2023-12-14T16:58:41;3.70;99.90
52725;DHT22;38621;52.830;6.914;2023-12-14T17:01:07;3.70;99.90
52725;DHT22;38621;52.830;6.914;2023-12-14T17:03:32;3.60;99.90
52725;DHT22;38621;52.830;6.914;2023-12-14T17:05:58;3.50;99.90
52725;DHT22;38621;52.830;6.914;2023-12-14T17:08:23;3.50;99.90
52725;DHT22;38621;52.830;6.914;2023-12-14T17:10:52;3.40;99.90
52725;DHT22;38621;52.830;6.914;2023-12-14T17:13:18;3.40;99.90
52725;DHT22;38621;52.830;6.914;2023-12-14T17:15:44;3.40;99.90
52725;DHT22;38621;52.830;6.914;2023-12-14T17:18:09;3.40;99.90
52725;DHT22;38621;52.830;6.914;2023-12-14T17:20:35;3.40;99.90
52725;DHT22;38621;52.830;6.914;2023-12-14T17:23:04;3.40;99.90
52725;DHT22;38621;52.830;6.914;2023-12-14T17:25:33;3.40;99.90
52725;DHT22;38621;52.830;6.914;2023-12-14T17:27:59;3.40;99.90
52725;DHT22;38621;52.830;6.914;2023-12-14T17:30:25;3.50;99.90
52725;DHT22;38621;52.830;6.914;2023-12-14T17:32:51;3.50;99.90
52725;DHT22;38621;52.830;6.914;2023-12-14T17:35:16;3.50;99.90